Time;durP1;ratioP1;P1;durP2;ratioP2;P2;SDS_P1;SDS_P2;PMS_P1;PMS_P2;Temp;Humidity;BMP_temperature;BMP_pressure;BME280_temperature;BME280_humidity;BME280_pressure;Samples;Min_cycle;Max_cycle;Signal;HPM_P1;HPM_P2
2024/02/11 00:01:02;;;;;;;9.97;8.90;;;9.40;99.90;;;;;;4990838;28;20589;-59
2024/02/11 00:03:29;;;;;;;12.33;9.87;;;9.40;99.90;;;;;;4990914;28;20206;-59
2024/02/11 00:05:56;;;;;;;9.60;8.07;;;9.40;99.90;;;;;;4991253;28;20258;-60
2024/02/11 00:08:23;;;;;;;10.90;8.30;;;9.40;99.90;;;;;;4990980;28;20229;-59
2024/02/11 00:10:53;;;;;;;11.20;8.90;;;9.40;99.90;;;;;;4991813;28;20217;-60
2024/02/11 00:13:22;;;;;;;10.73;9.17;;;9.40;99.90;;;;;;4990744;28;20589;-59
2024/02/11 00:15:49;;;;;;;12.27;9.63;;;9.40;99.90;;;;;;4991902;28;20346;-59
2024/02/11 00:18:17;;;;;;;12.97;9.40;;;9.40;99.90;;;;;;4991629;28;20230;-59
2024/02/11 00:20:44;;;;;;;11.40;8.63;;;9.40;99.90;;;;;;4992018;28;20215;-60
2024/02/11 00:23:12;;;;;;;12.70;9.57;;;9.40;99.90;;;;;;4990226;28;20206;-60
2024/02/11 00:25:40;;;;;;;10.60;9.07;;;9.20;99.90;;;;;;5006063;28;20225;-59
2024/02/11 00:28:08;;;;;;;15.23;9.83;;;9.30;99.90;;;;;;5010946;28;20265;-60
2024/02/11 00:30:37;;;;;;;10.70;9.43;;;9.30;99.90;;;;;;5010863;28;20635;-59
2024/02/11 00:33:05;;;;;;;12.50;10.50;;;9.40;99.90;;;;;;5010383;28;20205;-60
2024/02/11 00:35:32;;;;;;;11.10;9.37;;;9.40;99.90;;;;;;5010816;28;20197;-60
2024/02/11 00:38:00;;;;;;;11.47;9.67;;;9.30;99.90;;;;;;5008281;28;20221;-60
2024/02/11 00:40:27;;;;;;;10.73;8.97;;;9.30;99.90;;;;;;4991106;28;20206;-60
2024/02/11 00:42:54;;;;;;;14.70;11.10;;;9.30;99.90;;;;;;4990336;28;20300;-59
2024/02/11 00:45:21;;;;;;;11.40;10.27;;;9.30;99.90;;;;;;4988453;28;20944;-60
2024/02/11 00:47:50;;;;;;;10.27;9.27;;;9.30;99.90;;;;;;4991477;28;20227;-59
2024/02/11 00:50:18;;;;;;;11.47;9.83;;;9.30;99.90;;;;;;4991084;28;20210;-59
2024/02/11 00:52:45;;;;;;;10.70;9.60;;;9.30;99.90;;;;;;4992265;28;20213;-59
2024/02/11 00:55:14;;;;;;;13.43;10.17;;;9.30;99.90;;;;;;5010667;28;20201;-59
2024/02/11 00:57:41;;;;;;;12.97;10.40;;;9.30;99.90;;;;;;5010334;28;20328;-60
2024/02/11 01:00:11;;;;;;;11.87;10.67;;;9.20;99.90;;;;;;5010702;28;20794;-59
2024/02/11 01:02:38;;;;;;;12.10;9.60;;;9.20;99.90;;;;;;5009837;28;20291;-60
2024/02/11 01:05:07;;;;;;;12.20;9.57;;;9.10;99.90;;;;;;5010116;28;20581;-60
2024/02/11 01:07:34;;;;;;;11.23;9.13;;;9.10;99.90;;;;;;5000252;28;20226;-60
2024/02/11 01:10:01;;;;;;;11.80;9.70;;;9.10;99.90;;;;;;4990581;28;20245;-60
2024/02/11 01:12:30;;;;;;;9.60;8.60;;;9.00;99.90;;;;;;4990756;28;20605;-59
2024/02/11 01:14:57;;;;;;;11.03;9.73;;;9.00;99.90;;;;;;4990774;28;20207;-59
2024/02/11 01:17:26;;;;;;;14.03;11.87;;;9.00;99.90;;;;;;4994092;28;20779;-60
2024/02/11 01:19:53;;;;;;;17.17;11.90;;;9.00;99.90;;;;;;4993730;28;20213;-60
2024/02/11 01:22:25;;;;;;;15.00;11.60;;;8.90;99.90;;;;;;5007774;28;20566;-59
2024/02/11 01:24:52;;;;;;;12.60;10.87;;;8.90;99.90;;;;;;5013338;28;20696;-60
2024/02/11 01:27:19;;;;;;;15.13;11.50;;;;;;;;;;5014136;28;20228;-59
2024/02/11 01:29:45;;;;;;;16.50;12.00;;;8.90;99.90;;;;;;5014351;28;20344;-60
2024/02/11 01:32:12;;;;;;;18.63;11.70;;;9.00;99.90;;;;;;5001160;28;20217;-60
2024/02/11 01:34:39;;;;;;;11.10;9.90;;;9.00;99.90;;;;;;5006440;28;20236;-61
2024/02/11 01:37:07;;;;;;;5.03;4.60;;;8.90;99.90;;;;;;4994999;28;20246;-60
2024/02/11 01:39:36;;;;;;;2.07;1.97;;;;;;;;;;4984450;28;20565;-60
2024/02/11 01:42:03;;;;;;;0.60;0.60;;;;;;;;;;4977062;28;20239;-60
2024/02/11 01:44:31;;;;;;;0.20;0.20;;;;;;;;;;4975720;28;20237;-60
2024/02/11 01:46:58;;;;;;;0.30;0.30;;;;;;;;;;4976259;28;20222;-59
2024/02/11 01:49:26;;;;;;;0.20;0.20;;;8.50;99.90;;;;;;4982577;28;20267;-60
2024/02/11 01:51:53;;;;;;;0.53;0.20;;;;;;;;;;5014967;28;20696;-60
2024/02/11 01:54:21;;;;;;;0.10;0.10;;;;;;;;;;5014589;28;20624;-60
2024/02/11 01:56:50;;;;;;;0.30;0.23;;;9.60;99.90;;;;;;5014874;28;20534;-60
2024/02/11 01:59:18;;;;;;;0.10;0.10;;;8.50;99.90;;;;;;5014921;28;20288;-60
2024/02/11 02:01:46;;;;;;;0.50;0.37;;;8.50;99.90;;;;;;5014737;28;20209;-60
2024/02/11 02:04:13;;;;;;;0.60;0.60;;;8.40;99.90;;;;;;5013615;28;20205;-60
2024/02/11 02:06:40;;;;;;;0.47;0.47;;;8.40;99.90;;;;;;5014117;28;20221;-60
2024/02/11 02:09:10;;;;;;;0.43;0.43;;;8.40;99.90;;;;;;5014369;28;20232;-60
2024/02/11 02:11:38;;;;;;;0.60;0.50;;;8.40;99.90;;;;;;5014408;28;20226;-60
2024/02/11 02:14:07;;;;;;;0.30;0.30;;;8.40;99.90;;;;;;5013818;28;20427;-60
2024/02/11 02:16:34;;;;;;;0.20;0.20;;;8.40;99.90;;;;;;5014305;28;20219;-60
2024/02/11 02:19:01;;;;;;;0.10;0.10;;;8.30;99.90;;;;;;5014347;28;20240;-60
2024/02/11 02:21:28;;;;;;;0.40;0.40;;;8.30;99.90;;;;;;5014749;28;20282;-62
2024/02/11 02:23:57;;;;;;;0.10;0.10;;;8.30;99.90;;;;;;5013916;28;20209;-59
2024/02/11 02:26:24;;;;;;;0.00;0.00;;;8.30;99.90;;;;;;5014380;28;20310;-59
2024/02/11 02:28:51;;;;;;;0.00;0.00;;;8.20;99.90;;;;;;5013591;28;20638;-60
2024/02/11 02:31:18;;;;;;;0.00;0.00;;;8.20;99.90;;;;;;5014253;28;20271;-60
2024/02/11 02:33:45;;;;;;;0.00;0.00;;;8.10;99.90;;;;;;5013234;28;20673;-60
2024/02/11 02:36:17;;;;;;;0.00;0.00;;;7.80;99.90;;;;;;5014288;28;20211;-60
2024/02/11 02:38:44;;;;;;;0.30;0.30;;;7.80;99.90;;;;;;5014046;28;20240;-59
2024/02/11 02:41:12;;;;;;;0.27;0.27;;;7.70;99.90;;;;;;5013839;28;20217;-60
2024/02/11 02:43:39;;;;;;;0.70;0.70;;;7.70;99.90;;;;;;5007935;28;20655;-59
2024/02/11 02:46:09;;;;;;;0.60;0.30;;;7.80;99.90;;;;;;4996191;28;20285;-60
2024/02/11 02:48:36;;;;;;;1.27;0.40;;;7.60;99.90;;;;;;4994724;28;20236;-60
2024/02/11 02:51:03;;;;;;;1.13;0.40;;;7.70;99.90;;;;;;4994185;28;20232;-60
2024/02/11 02:53:30;;;;;;;0.13;0.13;;;7.60;99.90;;;;;;4993881;28;20211;-60
2024/02/11 02:55:57;;;;;;;0.10;0.10;;;7.70;99.90;;;;;;4994090;28;20256;-60
2024/02/11 02:58:25;;;;;;;0.00;0.00;;;7.60;99.90;;;;;;4994223;28;20324;-60
2024/02/11 03:00:52;;;;;;;0.07;0.03;;;7.60;99.90;;;;;;4994142;28;20256;-60
2024/02/11 03:03:19;;;;;;;2.37;0.17;;;7.50;99.90;;;;;;4993510;28;20279;-60
2024/02/11 03:05:47;;;;;;;0.00;0.00;;;7.50;99.90;;;;;;4993607;28;20624;-60
2024/02/11 03:08:14;;;;;;;0.00;0.00;;;7.40;99.90;;;;;;4993936;28;20230;-60
2024/02/11 03:10:41;;;;;;;0.67;0.10;;;7.50;99.90;;;;;;4993773;28;20686;-60
2024/02/11 03:13:07;;;;;;;0.30;0.00;;;7.50;99.90;;;;;;4993076;28;20689;-60
2024/02/11 03:15:36;;;;;;;0.00;0.00;;;7.40;99.90;;;;;;4993438;28;20270;-60
2024/02/11 03:18:03;;;;;;;0.00;0.00;;;7.40;99.90;;;;;;4993801;28;20220;-60
2024/02/11 03:20:30;;;;;;;0.00;0.00;;;7.40;99.90;;;;;;4993987;28;20260;-60
2024/02/11 03:22:57;;;;;;;0.00;0.00;;;7.50;99.90;;;;;;4992814;28;20269;-60
2024/02/11 03:25:25;;;;;;;0.00;0.00;;;;;;;;;;4994129;28;20700;-60
2024/02/11 03:27:54;;;;;;;0.00;0.00;;;7.30;99.90;;;;;;4993641;28;20632;-59
2024/02/11 03:30:22;;;;;;;0.00;0.00;;;7.30;99.90;;;;;;4993453;28;20205;-60
2024/02/11 03:32:51;;;;;;;0.00;0.00;;;7.30;99.90;;;;;;4992491;28;20359;-60
2024/02/11 03:35:18;;;;;;;0.00;0.00;;;7.20;99.90;;;;;;4993675;28;20206;-59
2024/02/11 03:37:45;;;;;;;0.00;0.00;;;7.20;99.90;;;;;;4991878;28;20225;-59
2024/02/11 03:40:16;;;;;;;0.00;0.00;;;7.30;99.90;;;;;;4992287;28;20237;-59
2024/02/11 03:42:43;;;;;;;0.00;0.00;;;7.20;99.90;;;;;;4990837;28;20205;-59
2024/02/11 03:45:11;;;;;;;0.10;0.00;;;7.20;99.90;;;;;;4994549;28;20357;-59
2024/02/11 03:47:38;;;;;;;0.97;0.00;;;7.10;99.90;;;;;;4990267;28;20260;-59
2024/02/11 03:50:11;;;;;;;0.00;0.00;;;7.20;99.90;;;;;;4991906;28;20283;-60
2024/02/11 03:52:38;;;;;;;0.10;0.00;;;;;;;;;;4992634;28;20262;-59
2024/02/11 03:55:07;;;;;;;0.00;0.00;;;7.00;99.90;;;;;;4996242;28;20252;-60
2024/02/11 03:57:34;;;;;;;0.00;0.00;;;;;;;;;;4999000;28;20233;-59
2024/02/11 04:00:05;;;;;;;0.67;0.10;;;6.80;99.90;;;;;;4997388;28;20206;-59
2024/02/11 04:02:34;;;;;;;0.00;0.00;;;6.90;99.90;;;;;;4992373;28;20268;-60
2024/02/11 04:05:01;;;;;;;0.00;0.00;;;6.90;99.90;;;;;;4992849;28;20297;-59
2024/02/11 04:07:32;;;;;;;0.60;0.10;;;7.00;99.90;;;;;;4992798;28;20225;-59
2024/02/11 04:10:09;;;;;;;0.10;0.10;;;6.90;99.90;;;;;;4993246;28;20291;-59
2024/02/11 04:12:36;;;;;;;0.10;0.10;;;7.10;99.90;;;;;;4992179;28;20202;-59
2024/02/11 04:15:09;;;;;;;0.40;0.40;;;6.90;99.90;;;;;;4992648;28;20359;-59
2024/02/11 04:17:37;;;;;;;0.57;0.20;;;6.90;99.90;;;;;;4999640;28;20278;-60
2024/02/11 04:20:09;;;;;;;0.10;0.10;;;6.90;99.90;;;;;;4992627;28;20215;-59
2024/02/11 04:22:37;;;;;;;0.10;0.10;;;6.80;99.90;;;;;;4992004;28;20715;-59
2024/02/11 04:25:07;;;;;;;0.10;0.10;;;6.80;99.90;;;;;;4992464;28;20240;-59
2024/02/11 04:27:40;;;;;;;0.30;0.30;;;6.80;99.90;;;;;;4992472;28;20280;-59
2024/02/11 04:30:12;;;;;;;0.30;0.30;;;6.70;99.90;;;;;;4992271;28;20642;-60
2024/02/11 04:32:42;;;;;;;0.30;0.30;;;6.80;99.90;;;;;;4999825;28;20209;-59
2024/02/11 04:35:11;;;;;;;0.30;0.30;;;6.80;99.90;;;;;;4993438;28;20266;-59
2024/02/11 04:37:46;;;;;;;0.40;0.40;;;6.80;99.90;;;;;;5001159;28;20227;-59
2024/02/11 04:40:13;;;;;;;0.30;0.30;;;6.90;99.90;;;;;;4992324;28;20681;-60
2024/02/11 04:42:42;;;;;;;0.30;0.30;;;6.80;99.90;;;;;;4991132;28;20338;-60
2024/02/11 04:45:10;;;;;;;0.40;0.40;;;;;;;;;;4992122;28;20255;-59
2024/02/11 04:47:40;;;;;;;0.30;0.30;;;6.80;99.90;;;;;;4991730;28;20350;-60
2024/02/11 04:50:10;;;;;;;0.30;0.30;;;6.90;99.90;;;;;;4997577;28;20201;-60
2024/02/11 04:52:40;;;;;;;0.20;0.20;;;6.80;99.90;;;;;;4991455;28;20700;-59
2024/02/11 04:55:08;;;;;;;0.30;0.30;;;7.00;99.90;;;;;;4992099;28;20206;-59
2024/02/11 04:57:38;;;;;;;0.40;0.40;;;;;;;;;;5011583;23;20462;-60
2024/02/11 05:00:23;;;;;;;1.03;0.50;;;;;;;;;;4991807;28;20228;-61
2024/02/11 05:02:51;;;;;;;0.60;0.60;;;;;;;;;;4991917;28;20574;-61
2024/02/11 05:05:19;;;;;;;0.80;0.80;;;;;;;;;;4992258;28;20301;-60
2024/02/11 05:07:48;;;;;;;1.10;0.80;;;;;;;;;;4995443;28;20272;-61
2024/02/11 05:10:16;;;;;;;0.40;0.40;;;;;;;;;;4992713;28;20204;-60
2024/02/11 05:12:44;;;;;;;0.77;0.77;;;;;;;;;;4991600;28;20698;-61
2024/02/11 05:15:14;;;;;;;0.50;0.50;;;6.60;99.90;;;;;;4992193;28;20199;-61
2024/02/11 05:17:42;;;;;;;0.60;0.60;;;6.90;99.90;;;;;;4992782;28;20312;-61
2024/02/11 05:20:13;;;;;;;0.37;0.37;;;6.80;99.90;;;;;;4992517;28;20207;-61
2024/02/11 05:22:44;;;;;;;1.20;0.40;;;6.80;99.90;;;;;;4991978;28;20251;-61
2024/02/11 05:25:19;;;;;;;0.30;0.30;;;6.70;99.90;;;;;;4997654;28;20209;-61
2024/02/11 05:27:49;;;;;;;0.40;0.40;;;6.90;99.90;;;;;;4997015;28;20242;-62
2024/02/11 05:30:16;;;;;;;0.40;0.40;;;6.70;99.90;;;;;;4992503;28;20201;-61
2024/02/11 05:32:45;;;;;;;0.50;0.50;;;6.60;99.90;;;;;;4991534;28;20672;-62
2024/02/11 05:35:13;;;;;;;0.30;0.30;;;6.70;99.90;;;;;;4991957;28;20205;-64
2024/02/11 05:37:41;;;;;;;0.40;0.40;;;6.60;99.90;;;;;;4992288;28;20264;-63
2024/02/11 05:40:10;;;;;;;0.40;0.40;;;6.60;99.90;;;;;;4992695;28;20636;-61
2024/02/11 05:42:42;;;;;;;0.47;0.47;;;6.60;99.90;;;;;;4990936;28;20206;-61
2024/02/11 05:45:10;;;;;;;0.40;0.40;;;6.60;99.90;;;;;;4995825;28;20287;-61
2024/02/11 05:47:37;;;;;;;0.50;0.50;;;6.70;99.90;;;;;;4989621;28;20237;-63
2024/02/11 05:50:08;;;;;;;0.50;0.50;;;6.60;99.90;;;;;;4992036;28;20745;-63
2024/02/11 05:52:35;;;;;;;0.80;0.80;;;6.60;99.90;;;;;;4991426;28;20630;-66
2024/02/11 05:55:03;;;;;;;0.60;0.60;;;6.60;99.90;;;;;;4991936;28;20210;-63
2024/02/11 05:57:30;;;;;;;0.30;0.30;;;6.60;99.90;;;;;;4991309;28;20254;-66
2024/02/11 05:59:58;;;;;;;0.50;0.50;;;6.60;99.90;;;;;;4991794;28;20593;-64
2024/02/11 06:02:27;;;;;;;0.47;0.47;;;6.70;99.90;;;;;;4992205;28;20263;-62
2024/02/11 06:04:55;;;;;;;0.40;0.40;;;;;;;;;;4995109;28;20296;-62
2024/02/11 06:07:24;;;;;;;0.63;0.63;;;6.50;99.90;;;;;;4994963;28;20303;-63
2024/02/11 06:09:51;;;;;;;0.77;0.77;;;6.60;99.90;;;;;;4995677;28;20209;-62
2024/02/11 06:12:18;;;;;;;0.80;0.80;;;6.60;99.90;;;;;;4995370;28;20253;-61
2024/02/11 06:14:45;;;;;;;0.60;0.60;;;6.60;99.90;;;;;;4994594;28;20636;-64
2024/02/11 06:17:13;;;;;;;0.60;0.60;;;6.60;99.90;;;;;;4994755;28;20191;-65
2024/02/11 06:19:42;;;;;;;1.13;0.63;;;6.60;99.90;;;;;;4995471;28;20205;-63
2024/02/11 06:22:09;;;;;;;0.60;0.60;;;6.50;99.90;;;;;;4995228;28;20206;-62
2024/02/11 06:24:37;;;;;;;1.40;0.70;;;6.60;99.90;;;;;;4994486;28;20205;-63
2024/02/11 06:27:05;;;;;;;0.60;0.60;;;6.60;99.90;;;;;;4979883;28;20273;-62
2024/02/11 06:29:32;;;;;;;0.83;0.83;;;6.50;99.90;;;;;;4975618;28;20230;-63
2024/02/11 06:31:59;;;;;;;0.97;0.97;;;6.40;99.90;;;;;;4975791;28;20206;-63
2024/02/11 06:34:27;;;;;;;1.43;1.33;;;6.50;99.90;;;;;;4974607;28;20647;-63
2024/02/11 06:36:55;;;;;;;1.50;1.40;;;6.40;99.90;;;;;;4987901;28;20686;-62
2024/02/11 06:39:24;;;;;;;1.30;1.30;;;6.40;99.90;;;;;;4994946;28;20229;-65
2024/02/11 06:41:52;;;;;;;1.13;1.07;;;6.50;99.90;;;;;;4994868;28;20240;-65
2024/02/11 06:44:26;;;;;;;1.13;1.13;;;6.40;99.90;;;;;;4994278;28;20208;-62
2024/02/11 06:46:54;;;;;;;0.97;0.97;;;6.40;99.90;;;;;;4969256;28;20214;-61
2024/02/11 06:49:22;;;;;;;0.63;0.57;;;6.50;99.90;;;;;;4956123;28;20231;-62
2024/02/11 06:51:51;;;;;;;1.73;1.40;;;6.50;99.90;;;;;;4956000;29;20213;-63
2024/02/11 06:54:18;;;;;;;0.90;0.90;;;6.60;99.90;;;;;;4955188;28;20238;-62
2024/02/11 06:56:47;;;;;;;0.90;0.90;;;6.40;99.90;;;;;;4978440;28;20676;-62
2024/02/11 06:59:14;;;;;;;1.00;1.00;;;6.40;99.90;;;;;;4994433;28;20278;-62
2024/02/11 07:01:42;;;;;;;0.80;0.80;;;6.40;99.90;;;;;;4994492;28;20681;-61
2024/02/11 07:04:12;;;;;;;1.00;1.00;;;6.50;99.90;;;;;;4993803;28;20201;-63
2024/02/11 07:06:43;;;;;;;1.40;1.20;;;6.40;99.90;;;;;;4993818;28;20677;-62
2024/02/11 07:09:13;;;;;;;1.50;1.40;;;6.40;99.90;;;;;;4994483;28;20233;-62
2024/02/11 07:11:40;;;;;;;1.50;1.40;;;6.40;99.90;;;;;;4994457;28;20206;-61
2024/02/11 07:14:08;;;;;;;1.90;1.80;;;6.40;99.90;;;;;;4993466;28;20264;-61
2024/02/11 07:16:37;;;;;;;1.50;1.47;;;5.90;99.90;;;;;;4993786;28;20629;-63
2024/02/11 07:19:04;;;;;;;1.57;1.47;;;6.50;99.90;;;;;;4994236;28;20288;-63
2024/02/11 07:21:33;;;;;;;2.63;2.40;;;6.40;99.90;;;;;;4994503;28;20269;-67
2024/02/11 07:24:00;;;;;;;2.10;1.90;;;6.50;99.90;;;;;;4993293;28;20210;-63
2024/02/11 07:26:28;;;;;;;3.07;2.77;;;6.60;99.90;;;;;;4993573;28;20200;-63
2024/02/11 07:28:55;;;;;;;3.43;3.23;;;6.60;99.90;;;;;;4993906;28;20256;-62
2024/02/11 07:31:22;;;;;;;4.13;3.83;;;6.70;99.90;;;;;;4994005;28;20206;-63
2024/02/11 07:33:49;;;;;;;4.20;3.80;;;6.60;99.90;;;;;;4993103;28;20566;-64
2024/02/11 07:36:17;;;;;;;3.63;3.33;;;6.60;99.90;;;;;;4987508;28;20209;-63
2024/02/11 07:38:46;;;;;;;3.50;3.20;;;6.50;99.90;;;;;;4974280;28;20712;-64
2024/02/11 07:41:13;;;;;;;3.90;3.70;;;6.60;99.90;;;;;;4974362;28;20686;-63
2024/02/11 07:43:41;;;;;;;3.13;2.93;;;6.60;99.90;;;;;;4973514;28;20253;-65
2024/02/11 07:46:08;;;;;;;6.20;4.87;;;6.60;99.90;;;;;;4978469;28;20741;-64
2024/02/11 07:48:35;;;;;;;3.73;3.43;;;6.60;99.90;;;;;;4991553;28;20288;-63
2024/02/11 07:51:02;;;;;;;3.17;2.60;;;;;;;;;;4993557;28;20679;-63
2024/02/11 07:53:29;;;;;;;7.30;6.43;;;6.50;99.90;;;;;;4991006;28;20233;-58
2024/02/11 07:55:56;;;;;;;10.87;7.70;;;6.60;99.90;;;;;;4991880;28;20212;-59
2024/02/11 07:58:24;;;;;;;8.60;7.40;;;6.60;99.90;;;;;;4980065;28;20262;-59
2024/02/11 08:00:52;;;;;;;4.83;4.47;;;6.70;99.90;;;;;;4992298;28;20734;-63
2024/02/11 08:03:20;;;;;;;4.30;4.03;;;6.80;99.90;;;;;;4992642;28;20205;-63
2024/02/11 08:05:47;;;;;;;4.10;3.80;;;6.80;99.90;;;;;;4992340;28;20252;-62
2024/02/11 08:08:14;;;;;;;2.47;2.27;;;6.80;99.90;;;;;;4993168;28;20272;-66
2024/02/11 08:10:41;;;;;;;2.87;2.67;;;6.70;99.90;;;;;;4993029;28;20264;-64
2024/02/11 08:13:09;;;;;;;3.90;3.40;;;;;;;;;;4992341;28;20204;-63
2024/02/11 08:15:36;;;;;;;3.87;3.67;;;;;;;;;;4993215;28;20648;-64
2024/02/11 08:18:08;;;;;;;5.63;5.03;;;;;;;;;;4992146;28;20226;-60
2024/02/11 08:20:35;;;;;;;4.67;4.27;;;;;;;;;;4993174;28;20296;-62
2024/02/11 08:23:03;;;;;;;4.40;4.03;;;;;;;;;;4992149;28;20752;-64
2024/02/11 08:25:30;;;;;;;4.50;4.20;;;;;;;;;;4992493;28;20205;-62
2024/02/11 08:27:57;;;;;;;4.60;4.20;;;;;;;;;;4991816;28;20221;-62
2024/02/11 08:30:25;;;;;;;3.97;3.60;;;;;;;;;;4993117;28;20209;-61
2024/02/11 08:32:52;;;;;;;3.43;3.10;;;6.80;99.90;;;;;;4982270;28;20663;-60
2024/02/11 08:35:21;;;;;;;3.60;3.30;;;6.90;99.90;;;;;;4967388;28;20203;-62
2024/02/11 08:37:48;;;;;;;2.00;1.90;;;6.80;99.90;;;;;;4979305;28;20223;-65
2024/02/11 08:40:15;;;;;;;3.30;3.13;;;;;;;;;;4991254;28;20209;-64
2024/02/11 08:42:43;;;;;;;4.43;4.10;;;;;;;;;;4981577;28;20202;-63
2024/02/11 08:45:11;;;;;;;3.57;3.20;;;;;;;;;;4981801;28;20198;-65
2024/02/11 08:47:38;;;;;;;3.63;2.90;;;6.80;99.90;;;;;;4992413;28;20293;-64
2024/02/11 08:50:06;;;;;;;2.73;2.60;;;;;;;;;;4992628;28;20671;-65
2024/02/11 08:52:35;;;;;;;2.43;2.33;;;;;;;;;;4991163;28;20263;-65
2024/02/11 08:55:02;;;;;;;3.00;2.80;;;;;;;;;;4992559;28;20273;-66
2024/02/11 08:57:30;;;;;;;2.60;2.50;;;;;;;;;;4992868;28;20248;-67
2024/02/11 08:59:57;;;;;;;2.87;2.60;;;;;;;;;;4992669;28;20207;-62
2024/02/11 09:02:28;;;;;;;3.03;2.87;;;;;;;;;;4991653;28;20217;-60
2024/02/11 09:04:56;;;;;;;2.63;2.43;;;;;;;;;;4992156;28;20231;-61
2024/02/11 09:07:24;;;;;;;2.47;2.30;;;;;;;;;;4992446;28;20209;-60
2024/02/11 09:09:52;;;;;;;2.20;2.10;;;;;;;;;;4996244;28;20713;-61
2024/02/11 09:12:19;;;;;;;2.03;1.77;;;;;;;;;;4992655;28;20735;-60
2024/02/11 09:14:47;;;;;;;2.27;2.17;;;;;;;;;;4974305;28;20265;-61
2024/02/11 09:17:14;;;;;;;1.63;1.63;;;6.80;99.90;;;;;;4973119;28;20210;-60
2024/02/11 09:19:42;;;;;;;3.37;2.20;;;6.80;99.90;;;;;;4959308;28;20203;-61
2024/02/11 09:22:09;;;;;;;1.97;1.87;;;6.90;99.90;;;;;;4954506;29;20270;-60
2024/02/11 09:24:38;;;;;;;1.77;1.67;;;7.00;99.90;;;;;;4987902;28;20218;-61
2024/02/11 09:27:10;;;;;;;1.80;1.40;;;6.90;99.90;;;;;;4993184;28;20245;-60
2024/02/11 09:29:37;;;;;;;2.13;1.60;;;6.90;99.90;;;;;;4997822;28;20229;-61
2024/02/11 09:32:05;;;;;;;1.33;1.33;;;6.80;99.90;;;;;;4992152;28;20209;-63
2024/02/11 09:34:33;;;;;;;1.80;1.70;;;6.90;99.90;;;;;;4989796;28;20272;-63
2024/02/11 09:37:00;;;;;;;1.53;1.43;;;7.00;99.90;;;;;;4992610;28;20700;-63
2024/02/11 09:39:27;;;;;;;1.93;1.83;;;7.00;99.90;;;;;;4995792;28;20256;-63
2024/02/11 09:41:54;;;;;;;1.10;1.10;;;7.10;99.90;;;;;;4997066;28;20201;-63
2024/02/11 09:44:26;;;;;;;1.30;1.30;;;;;;;;;;4995164;28;20202;-63
2024/02/11 09:46:55;;;;;;;1.80;1.70;;;;;;;;;;4998964;28;20256;-64
2024/02/11 09:49:22;;;;;;;1.87;1.77;;;;;;;;;;4995750;28;20227;-61
2024/02/11 09:51:51;;;;;;;2.07;1.97;;;;;;;;;;4995970;28;20293;-61
2024/02/11 09:54:18;;;;;;;1.93;1.87;;;;;;;;;;4992194;28;20692;-61
2024/02/11 09:56:46;;;;;;;1.60;1.50;;;;;;;;;;4996050;28;20580;-61
2024/02/11 09:59:14;;;;;;;0.97;0.97;;;;;;;;;;4993750;28;20281;-63
2024/02/11 10:01:42;;;;;;;3.20;1.30;;;;;;;;;;4995557;28;20210;-63
2024/02/11 10:04:10;;;;;;;1.20;1.10;;;;;;;;;;4994045;28;20238;-63
2024/02/11 10:06:38;;;;;;;1.60;1.50;;;;;;;;;;4995834;28;20268;-63
2024/02/11 10:09:06;;;;;;;0.87;0.87;;;7.70;99.90;;;;;;4995585;28;20303;-62
2024/02/11 10:11:33;;;;;;;1.60;1.27;;;7.70;99.90;;;;;;4995769;28;20214;-63
2024/02/11 10:14:00;;;;;;;2.03;1.20;;;7.80;99.90;;;;;;4994124;28;20643;-63
2024/02/11 10:16:29;;;;;;;0.97;0.97;;;7.80;99.90;;;;;;4995563;28;20209;-64
2024/02/11 10:18:58;;;;;;;1.33;1.20;;;7.90;99.90;;;;;;4995461;28;20249;-64
2024/02/11 10:21:26;;;;;;;1.20;1.10;;;8.00;99.90;;;;;;4995356;28;20232;-64
2024/02/11 10:23:54;;;;;;;1.53;1.23;;;8.00;99.90;;;;;;4994057;28;20201;-64
2024/02/11 10:26:21;;;;;;;0.97;0.83;;;8.00;99.90;;;;;;4995306;28;20202;-65
2024/02/11 10:28:48;;;;;;;0.80;0.80;;;8.00;99.90;;;;;;4994944;28;20291;-64
2024/02/11 10:31:15;;;;;;;1.93;1.27;;;8.00;99.90;;;;;;4995332;28;20276;-62
2024/02/11 10:33:43;;;;;;;1.63;1.30;;;8.10;99.90;;;;;;4986236;28;20634;-63
2024/02/11 10:36:12;;;;;;;2.00;1.50;;;8.00;99.90;;;;;;4975702;28;20269;-63
2024/02/11 10:38:39;;;;;;;1.13;1.07;;;8.10;99.90;;;;;;4975611;28;20261;-64
2024/02/11 10:41:07;;;;;;;1.20;1.13;;;8.10;99.90;;;;;;4974805;28;20505;-61
2024/02/11 10:43:35;;;;;;;1.63;1.40;;;8.10;99.90;;;;;;4973767;28;20245;-58
2024/02/11 10:46:02;;;;;;;2.03;1.10;;;;;;;;;;4973902;28;20210;-59
2024/02/11 10:48:30;;;;;;;1.93;1.60;;;;;;;;;;4972956;28;20261;-58
2024/02/11 10:51:09;;;;;;;1.30;1.20;;;;;;;;;;4980967;28;20199;-59
2024/02/11 10:53:39;;;;;;;1.20;1.10;;;;;;;;;;4992210;28;20241;-58
2024/02/11 10:56:07;;;;;;;1.53;1.23;;;;;;;;;;4993655;28;20209;-58
2024/02/11 10:58:38;;;;;;;1.10;1.10;;;;;;;;;;4993025;28;20297;-59
2024/02/11 11:01:06;;;;;;;0.90;0.90;;;;;;;;;;4993832;28;20209;-58
2024/02/11 11:03:39;;;;;;;1.13;1.10;;;;;;;;;;4993830;28;20206;-58
2024/02/11 11:06:08;;;;;;;2.57;1.37;;;;;;;;;;4994686;28;20252;-58
2024/02/11 11:08:38;;;;;;;1.43;1.17;;;;;;;;;;4995269;28;20693;-58
2024/02/11 11:11:07;;;;;;;1.30;1.20;;;;;;;;;;4994280;28;20199;-58
2024/02/11 11:13:34;;;;;;;1.23;1.23;;;;;;;;;;4993685;28;20290;-58
2024/02/11 11:16:04;;;;;;;1.27;1.27;;;;;;;;;;4994252;28;20210;-59
2024/02/11 11:18:36;;;;;;;1.90;1.80;;;;;;;;;;4994413;28;20260;-58
2024/02/11 11:21:04;;;;;;;2.03;1.57;;;;;;;;;;4985565;28;20202;-58
2024/02/11 11:23:31;;;;;;;1.30;1.20;;;;;;;;;;4974073;28;20243;-58
2024/02/11 11:25:59;;;;;;;2.13;2.00;;;;;;;;;;4974903;28;20207;-58
2024/02/11 11:28:31;;;;;;;1.63;1.53;;;;;;;;;;4974573;28;20315;-59
2024/02/11 11:30:58;;;;;;;1.07;1.03;;;;;;;;;;4981446;28;20238;-58
2024/02/11 11:33:27;;;;;;;1.67;1.50;;;;;;;;;;4993150;28;20690;-58
2024/02/11 11:35:58;;;;;;;2.33;2.23;;;;;;;;;;4994213;28;20204;-58
2024/02/11 11:38:26;;;;;;;1.93;1.73;;;8.20;99.90;;;;;;4993929;28;20268;-58
2024/02/11 11:40:54;;;;;;;2.13;1.23;;;8.60;99.90;;;;;;4993331;28;20198;-58
2024/02/11 11:43:23;;;;;;;1.47;1.20;;;8.50;99.90;;;;;;4993023;28;20633;-59
2024/02/11 11:45:57;;;;;;;2.00;1.90;;;8.40;99.90;;;;;;4993820;28;20289;-58
2024/02/11 11:48:25;;;;;;;1.50;1.37;;;8.40;99.90;;;;;;4993945;28;20234;-58
2024/02/11 11:50:58;;;;;;;1.70;1.70;;;;;;;;;;4988656;28;20313;-58
2024/02/11 11:53:26;;;;;;;1.53;1.50;;;;;;;;;;4990452;28;20613;-58
2024/02/11 11:55:56;;;;;;;1.53;1.53;;;;;;;;;;4993735;28;20260;-58
2024/02/11 11:58:23;;;;;;;1.87;1.77;;;;;;;;;;4991164;28;20240;-58
2024/02/11 12:01:02;;;;;;;1.97;1.87;;;;;;;;;;4992033;28;20246;-58
2024/02/11 12:03:29;;;;;;;2.10;2.00;;;;;;;;;;4990523;28;20221;-58
2024/02/11 12:05:57;;;;;;;1.87;1.77;;;;;;;;;;4993372;28;20252;-58
2024/02/11 12:08:25;;;;;;;3.37;3.07;;;;;;;;;;4993331;28;20273;-58
2024/02/11 12:10:56;;;;;;;2.53;2.43;;;;;;;;;;4992415;28;20225;-58
2024/02/11 12:13:24;;;;;;;3.17;2.50;;;;;;;;;;4992643;28;20267;-58
2024/02/11 12:15:51;;;;;;;4.17;2.10;;;;;;;;;;4993636;28;20202;-58
2024/02/11 12:18:20;;;;;;;2.77;2.67;;;;;;;;;;4993217;28;20227;-58
2024/02/11 12:20:48;;;;;;;3.90;2.50;;;;;;;;;;4992257;28;20197;-58
2024/02/11 12:23:17;;;;;;;2.23;2.13;;;;;;;;;;4992193;28;20257;-58
2024/02/11 12:25:45;;;;;;;2.47;2.37;;;;;;;;;;4993699;28;20212;-58
2024/02/11 12:28:16;;;;;;;2.10;1.93;;;;;;;;;;4992845;28;20746;-59
2024/02/11 12:30:46;;;;;;;2.10;2.00;;;;;;;;;;4992188;28;20221;-58
2024/02/11 12:33:14;;;;;;;2.50;1.90;;;;;;;;;;4992204;28;20633;-58
2024/02/11 12:35:43;;;;;;;2.33;2.23;;;;;;;;;;4992930;28;20555;-58
2024/02/11 12:38:10;;;;;;;1.77;1.67;;;8.80;99.90;;;;;;4993305;28;20226;-58
2024/02/11 12:40:38;;;;;;;1.67;1.57;;;8.90;99.90;;;;;;4992128;28;20208;-58
2024/02/11 12:43:09;;;;;;;1.90;1.67;;;8.80;99.90;;;;;;4992044;28;20339;-58
2024/02/11 12:45:36;;;;;;;1.67;1.53;;;8.80;99.90;;;;;;4992901;28;20206;-58
2024/02/11 12:48:06;;;;;;;1.97;1.87;;;8.80;99.90;;;;;;4992649;28;20229;-58
2024/02/11 12:50:33;;;;;;;1.50;1.50;;;8.70;99.90;;;;;;4991622;28;20225;-58
2024/02/11 12:53:02;;;;;;;2.23;2.03;;;8.60;99.90;;;;;;4991844;28;20205;-58
2024/02/11 12:55:29;;;;;;;3.40;1.77;;;8.80;99.90;;;;;;4991071;28;20629;-58
2024/02/11 12:57:56;;;;;;;1.90;1.80;;;8.80;99.90;;;;;;4992550;28;20237;-58
2024/02/11 13:00:23;;;;;;;1.93;1.73;;;8.70;99.90;;;;;;4991734;28;20201;-58
2024/02/11 13:02:51;;;;;;;3.57;2.23;;;8.70;99.90;;;;;;4991543;28;20685;-58
2024/02/11 13:05:18;;;;;;;3.20;1.97;;;8.70;99.90;;;;;;4992615;28;20205;-58
2024/02/11 13:07:46;;;;;;;2.10;2.00;;;8.60;99.90;;;;;;4992553;28;20269;-58
2024/02/11 13:10:14;;;;;;;2.90;2.70;;;8.60;99.90;;;;;;4995260;28;20226;-58
2024/02/11 13:12:42;;;;;;;2.20;2.10;;;8.60;99.90;;;;;;4991696;28;20199;-58
2024/02/11 13:15:10;;;;;;;1.80;1.70;;;8.60;99.90;;;;;;4992367;28;20677;-58
2024/02/11 13:17:39;;;;;;;2.63;2.10;;;8.60;99.90;;;;;;4992209;28;20262;-58
2024/02/11 13:20:08;;;;;;;2.00;1.90;;;8.60;99.90;;;;;;4992469;28;20279;-59
2024/02/11 13:22:36;;;;;;;1.50;1.40;;;8.70;99.90;;;;;;4990857;28;20202;-58
2024/02/11 13:25:06;;;;;;;0.87;0.87;;;8.70;99.90;;;;;;4992839;28;20211;-58
2024/02/11 13:27:34;;;;;;;0.93;0.93;;;8.80;99.90;;;;;;4992245;28;20255;-58